Alameda, California
Current Conditions -  °F | °C
As of 6:53 PM on Monday 26 Jan 2015 (Local Time) from KOAK Reporting Station
Broken Clouds Broken Clouds  
Wind Chill: 13°   Ceiling: 16000
Heat Index: 13°   Visibility: 10mi
Dew Point:   Wind: 3mph
Humidity: 75%   Direction: 330°NNW
Pressure: 29.98"   Gusts: NA
Location:  37.77°N, 122.24°W
Report Text: KOAK 270253Z 33003KT 10SM BKN160 13/09 A2998 RMK AO2 SLP150 T01330089 53001
Loading
Personal Weather Stations






























Interactive Weather Map New forecast layout! Learn more

10-Day Weather Forecast

Advertisements
Track Severe Weather on mobile